Time;durP1;ratioP1;P1;durP2;ratioP2;P2;SDS_P1;SDS_P2;PMS_P1;PMS_P2;Temp;Humidity;BMP_temperature;BMP_pressure;BME280_temperature;BME280_humidity;BME280_pressure;Samples;Min_cycle;Max_cycle;Signal;HPM_P1;HPM_P2
2021/04/11 00:00:55;;;;;;;375.48;238.45;;;;;;;;;;5024448;28;20022;-83
2021/04/11 00:03:26;;;;;;;371.33;234.43;;;;;;;;;;4987999;28;20018;-84
2021/04/11 00:05:55;;;;;;;377.65;231.73;;;;;;;;;;5001550;28;20014;-84
2021/04/11 00:08:23;;;;;;;394.23;245.27;;;;;;;;;;5023358;28;20047;-83
2021/04/11 00:10:59;;;;;;;379.85;235.45;;;;;;;;;;5022675;28;20018;-83
2021/04/11 00:13:26;;;;;;;378.52;232.88;;;;;;;;;;5022614;28;20034;-82
2021/04/11 00:15:55;;;;;;;371.38;230.23;;;;;;;;;;4989390;28;20071;-83
2021/04/11 00:18:21;;;;;;;379.90;233.00;;;;;;;;;;5021459;28;20049;-82
2021/04/11 00:21:05;;;;;;;389.50;245.45;;;;;;;;;;5022176;28;20017;-84
2021/04/11 00:23:32;;;;;;;374.33;230.82;;;;;;;;;;5019036;28;20097;-82
2021/04/11 00:25:58;;;;;;;376.70;235.05;;;;;;;;;;5010055;28;20112;-84
2021/04/11 00:28:27;;;;;;;385.88;244.13;;;;;;;;;;5006198;28;20026;-82
2021/04/11 00:30:57;;;;;;;383.35;242.00;;;;;;;;;;5025188;28;20346;-82
2021/04/11 00:33:39;;;;;;;385.40;246.30;;;;;;;;;;5022489;28;20037;-82
2021/04/11 00:36:06;;;;;;;378.75;230.05;;;;;;;;;;5023300;28;20029;-82
2021/04/11 00:38:35;;;;;;;;;;;;;;;;;;5022481;28;20045;-83
2021/04/11 00:41:16;;;;;;;373.00;231.38;;;;;;;;;;4987641;28;19906;-83
2021/04/11 00:43:43;;;;;;;390.08;241.18;;;;;;;;;;5013928;28;20022;-84
2021/04/11 00:46:23;;;;;;;376.92;232.25;;;;;;;;;;5020075;28;20084;-82
2021/04/11 00:48:49;;;;;;;;;;;;;;;;;;4992625;28;20025;-87
2021/04/11 00:51:19;;;;;;;375.33;226.25;;;;;;;;;;4989021;28;19972;-84
2021/04/11 00:53:45;;;;;;;;;;;;;;;;;;4999634;28;20060;-82
2021/04/11 00:56:15;;;;;;;377.42;221.85;;;;;;;;;;4981721;28;20275;-82
2021/04/11 00:58:41;;;;;;;390.17;236.32;;;;;;;;;;5021206;28;20599;-81
2021/04/11 01:01:08;;;;;;;387.23;238.95;;;;;;;;;;5017885;28;20026;-84
2021/04/11 01:03:37;;;;;;;397.48;253.63;;;;;;;;;;5003860;28;20022;-83
2021/04/11 01:06:07;;;;;;;387.43;240.00;;;;;;;;;;5020410;28;20092;-84
2021/04/11 01:08:34;;;;;;;375.42;231.65;;;;;;;;;;5015662;28;20280;-83
2021/04/11 01:11:12;;;;;;;396.02;246.80;;;;;;;;;;5022608;28;20114;-83
2021/04/11 01:13:44;;;;;;;377.92;237.50;;;;;;;;;;5013007;28;20041;-82
2021/04/11 01:16:13;;;;;;;388.08;243.80;;;;;;;;;;5018739;28;20038;-82
2021/04/11 01:18:41;;;;;;;395.42;247.40;;;;;;;;;;4975421;28;20039;-82
2021/04/11 01:21:09;;;;;;;384.65;244.43;;;;;;;;;;5017013;28;20064;-84
2021/04/11 01:23:59;;;;;;;381.15;239.07;;;;;;;;;;5021612;28;20091;-84
2021/04/11 01:26:26;;;;;;;394.83;242.65;;;;;;;;;;4994717;28;20030;-83
2021/04/11 01:28:53;;;;;;;392.23;246.77;;;;;;;;;;4991025;28;20075;-83
2021/04/11 01:31:20;;;;;;;396.00;242.85;;;;;;;;;;4992274;28;20449;-83
2021/04/11 01:33:49;;;;;;;386.80;241.35;;;;;;;;;;4989099;28;20034;-84
2021/04/11 01:36:17;;;;;;;379.02;228.23;;;;;;;;;;5023503;28;20465;-82
2021/04/11 01:38:45;;;;;;;371.77;231.05;;;;;;;;;;5016326;28;20065;-83
2021/04/11 01:41:18;;;;;;;374.02;233.95;;;;;;;;;;5027155;28;20080;-82
2021/04/11 01:43:44;;;;;;;388.48;247.55;;;;;;;;;;5025862;28;20018;-83
2021/04/11 01:46:10;;;;;;;373.38;233.50;;;;;;;;;;5021566;28;20022;-83
2021/04/11 01:48:39;;;;;;;394.85;239.95;;;;;;;;;;5017172;28;20049;-82
2021/04/11 01:51:18;;;;;;;398.38;258.08;;;;;;;;;;5010882;28;20018;-84
2021/04/11 01:53:47;;;;;;;370.38;232.57;;;;;;;;;;5026190;28;20018;-84
2021/04/11 01:56:16;;;;;;;375.33;235.73;;;;;;;;;;4994671;28;20038;-83
2021/04/11 01:58:42;;;;;;;378.40;236.85;;;;;;;;;;5026686;28;20026;-81
2021/04/11 02:01:13;;;;;;;395.60;250.80;;;;;;;;;;5025483;28;20034;-84
2021/04/11 02:03:43;;;;;;;389.35;243.38;;;;;;;;;;5022416;28;20037;-85
2021/04/11 02:06:13;;;;;;;381.20;240.32;;;;;;;;;;5027093;28;20145;-84
2021/04/11 02:08:42;;;;;;;369.92;228.45;;;;;;;;;;5027086;28;20022;-84
2021/04/11 02:11:15;;;;;;;377.73;241.55;;;;;;;;;;4990744;28;20026;-83
2021/04/11 02:13:54;;;;;;;384.48;238.38;;;;;;;;;;5018818;28;20026;-84
2021/04/11 02:16:32;;;;;;;376.98;234.43;;;;;;;;;;4994855;28;20101;-83
2021/04/11 02:18:59;;;;;;;372.13;228.93;;;;;;;;;;5019498;28;20465;-84
2021/04/11 02:21:25;;;;;;;376.33;234.32;;;;;;;;;;5017461;28;20021;-83
2021/04/11 02:23:51;;;;;;;394.10;250.43;;;;;;;;;;5017926;28;20075;-83
2021/04/11 02:26:20;;;;;;;380.13;239.95;;;;;;;;;;5018011;28;20021;-82
2021/04/11 02:28:48;;;;;;;379.30;237.57;;;;;;;;;;5018506;28;20145;-83
2021/04/11 02:31:19;;;;;;;393.58;244.82;;;;;;;;;;5025291;28;20077;-83
2021/04/11 02:33:50;;;;;;;382.63;239.73;;;;;;;;;;5014185;28;20483;-83
2021/04/11 02:36:22;;;;;;;377.92;233.48;;;;;;;;;;5011748;28;20022;-84
2021/04/11 02:38:51;;;;;;;381.98;245.02;;;;;;;;;;5026379;28;20034;-84
2021/04/11 02:41:18;;;;;;;466.23;251.85;;;;;;;;;;4989600;28;20034;-83
2021/04/11 02:43:44;;;;;;;558.97;277.85;;;;;;;;;;5023983;28;20029;-85
2021/04/11 02:46:12;;;;;;;566.47;277.08;;;;;;;;;;5022845;28;20076;-83
2021/04/11 02:48:40;;;;;;;387.48;238.27;;;;;;;;;;5020729;28;20856;-84
2021/04/11 02:51:09;;;;;;;400.05;247.50;;;;;;;;;;5023133;28;20026;-83
2021/04/11 02:53:41;;;;;;;380.90;235.50;;;;;;;;;;5016192;28;20081;-83
2021/04/11 02:56:07;;;;;;;381.65;237.25;;;;;;;;;;5010965;28;20015;-85
2021/04/11 02:58:33;;;;;;;386.42;243.98;;;;;;;;;;5025000;28;20049;-83
2021/04/11 03:01:22;;;;;;;425.40;243.57;;;;;;;;;;5015097;28;20033;-83
2021/04/11 03:03:49;;;;;;;475.35;251.70;;;;;;;;;;5002672;28;20034;-83
2021/04/11 03:06:17;;;;;;;538.72;267.75;;;;;;;;;;5026261;28;20113;-81
2021/04/11 03:08:56;;;;;;;539.55;270.15;;;;;;;;;;5029131;28;20036;-82
2021/04/11 03:11:41;;;;;;;551.65;273.48;;;;;;;;;;4993719;28;20381;-83
2021/04/11 03:14:08;;;;;;;521.38;259.95;;;;;;;;;;5015896;28;20136;-83
2021/04/11 03:16:38;;;;;;;517.90;260.25;;;;;;;;;;5023359;28;20119;-83
2021/04/11 03:19:05;;;;;;;512.63;261.63;;;;;;;;;;4983514;28;20066;-84
2021/04/11 03:21:33;;;;;;;499.73;256.73;;;;;;;;;;5015081;28;20028;-82
2021/04/11 03:24:04;;;;;;;502.75;263.38;;;;;;;;;;5027796;28;20032;-84
2021/04/11 03:26:52;;;;;;;509.00;265.15;;;;;;;;;;4979185;28;20022;-84
2021/04/11 03:29:32;;;;;;;478.75;255.85;;;;;;;;;;5019788;28;20030;-83
2021/04/11 03:32:09;;;;;;;459.27;248.30;;;;;;;;;;5023208;28;20030;-83
2021/04/11 03:34:36;;;;;;;433.63;238.57;;;;;;;;;;4987695;28;20113;-82
2021/04/11 03:37:04;;;;;;;448.02;253.45;;;;;;;;;;4991690;28;20121;-83
2021/04/11 03:39:33;;;;;;;433.02;243.52;;;;;;;;;;4992673;28;20034;-83
2021/04/11 03:41:59;;;;;;;439.23;251.75;;;;;;;;;;5018642;28;20073;-83
2021/04/11 03:44:26;;;;;;;440.73;252.27;;;;;;;;;;5025169;28;20118;-82
2021/04/11 03:46:54;;;;;;;420.80;235.40;;;;;;;;;;5014904;28;20026;-84
2021/04/11 03:49:30;;;;;;;452.77;251.45;;;;;;;;;;5024518;28;20184;-85
2021/04/11 03:51:59;;;;;;;416.23;234.35;;;;;;;;;;5023943;28;20343;-81
2021/04/11 03:54:28;;;;;;;446.90;255.70;;;;;;;;;;5021808;28;20041;-83
2021/04/11 03:57:10;;;;;;;448.27;254.68;;;;;;;;;;5015978;28;20443;-83
2021/04/11 03:59:42;;;;;;;429.25;237.95;;;;;;;;;;5012831;28;20048;-83
2021/04/11 04:02:12;;;;;;;466.00;250.50;;;;;;;;;;5021032;28;20022;-83
2021/04/11 04:04:39;;;;;;;446.60;248.57;;;;;;;;;;4998871;28;20033;-81
2021/04/11 04:07:13;;;;;;;464.17;256.27;;;;;;;;;;5016057;28;20017;-82
2021/04/11 04:09:40;;;;;;;442.10;251.05;;;;;;;;;;5004733;28;20041;-83
2021/04/11 04:12:12;;;;;;;465.00;263.58;;;;;;;;;;5020655;28;20123;-83
2021/04/11 04:15:00;;;;;;;451.95;253.63;;;;;;;;;;5016938;28;20057;-84
2021/04/11 04:17:33;;;;;;;427.35;247.27;;;;;;;;;;5018967;28;20034;-85
2021/04/11 04:20:07;;;;;;;460.08;255.20;;;;;;;;;;4995471;28;20046;-83
2021/04/11 04:22:41;;;;;;;452.50;248.50;;;;;;;;;;5014961;28;20410;-82
2021/04/11 04:25:17;;;;;;;418.42;236.27;;;;;;;;;;5015568;28;20462;-83
2021/04/11 04:28:05;;;;;;;466.00;256.85;;;;;;;;;;5004023;28;20397;-84
2021/04/11 04:30:41;;;;;;;431.70;244.93;;;;;;;;;;5021242;28;20025;-82
2021/04/11 04:33:16;;;;;;;453.33;258.60;;;;;;;;;;4990597;28;20025;-83
2021/04/11 04:35:51;;;;;;;450.48;254.18;;;;;;;;;;4991785;28;20021;-81
2021/04/11 04:38:31;;;;;;;477.52;257.88;;;;;;;;;;4997755;28;20034;-82
2021/04/11 04:41:03;;;;;;;458.30;255.95;;;;;;;;;;5003276;28;20053;-83
2021/04/11 04:43:43;;;;;;;425.15;247.35;;;;;;;;;;5022243;28;20046;-83
2021/04/11 04:46:14;;;;;;;460.05;253.60;;;;;;;;;;5019812;28;20338;-83
2021/04/11 04:48:53;;;;;;;417.13;238.13;;;;;;;;;;4990335;28;20034;-85
2021/04/11 04:51:31;;;;;;;439.70;252.68;;;;;;;;;;5016233;28;20365;-82
2021/04/11 04:54:00;;;;;;;427.48;245.40;;;;;;;;;;5015188;28;20037;-83
2021/04/11 04:56:35;;;;;;;435.20;252.18;;;;;;;;;;5017980;28;20033;-84
2021/04/11 04:59:10;;;;;;;451.38;254.25;;;;;;;;;;5020721;28;20033;-81
2021/04/11 05:01:38;;;;;;;433.17;251.25;;;;;;;;;;5017775;28;20418;-83
2021/04/11 05:04:10;;;;;;;423.52;248.65;;;;;;;;;;5017664;28;20450;-83
2021/04/11 05:06:38;;;;;;;457.67;265.63;;;;;;;;;;5014854;28;20438;-82
2021/04/11 05:09:26;;;;;;;459.17;250.18;;;;;;;;;;4992009;28;20041;-85
2021/04/11 05:12:09;;;;;;;451.80;250.27;;;;;;;;;;5019156;28;20018;-81
2021/04/11 05:14:38;;;;;;;431.75;244.82;;;;;;;;;;5010909;28;20064;-82
2021/04/11 05:17:18;;;;;;;468.25;266.23;;;;;;;;;;5012045;28;21095;-82
2021/04/11 05:20:14;;;;;;;456.52;247.52;;;;;;;;;;4994066;28;20046;-84
2021/04/11 05:22:52;;;;;;;428.25;246.38;;;;;;;;;;4991384;28;20358;-84
2021/04/11 05:25:47;;;;;;;422.63;240.70;;;;;;;;;;5018612;28;20057;-84
2021/04/11 05:28:24;;;;;;;465.33;251.48;;;;;;;;;;4991497;28;20029;-83
2021/04/11 05:31:12;;;;;;;471.67;263.63;;;;;;;;;;5028883;28;20018;-82
2021/04/11 05:33:38;;;;;;;472.88;249.20;;;;;;;;;;4986436;28;20030;-84
2021/04/11 05:36:08;;;;;;;464.95;251.52;;;;;;;;;;5010651;28;20022;-82
2021/04/11 05:39:06;;;;;;;447.42;255.80;;;;;;;;;;5019465;28;20022;-82
2021/04/11 05:41:49;;;;;;;432.85;248.32;;;;;;;;;;4966702;28;20058;-82
2021/04/11 05:44:19;;;;;;;424.10;237.98;;;;;;;;;;4994776;28;20054;-82
2021/04/11 05:47:00;;;;;;;411.60;237.15;;;;;;;;;;5018236;28;20037;-82
2021/04/11 05:49:26;;;;;;;;;;;;;;;;;;5025604;28;20029;-82
2021/04/11 05:52:00;;;;;;;432.63;235.50;;;;;;;;;;4994194;28;20332;-83
2021/04/11 05:54:31;;;;;;;423.23;242.07;;;;;;;;;;5015712;28;20059;-82
2021/04/11 05:57:03;;;;;;;404.00;238.50;;;;;;;;;;5026518;28;20041;-82
2021/04/11 05:59:42;;;;;;;467.50;258.00;;;;;;;;;;4988593;28;20503;-82
2021/04/11 06:02:13;;;;;;;426.70;247.95;;;;;;;;;;5025624;28;20109;-81
2021/04/11 06:04:44;;;;;;;445.15;250.35;;;;;;;;;;5025095;28;20044;-81
2021/04/11 06:07:12;;;;;;;452.50;261.95;;;;;;;;;;5026708;28;20034;-83
2021/04/11 06:10:13;;;;;;;447.38;253.77;;;;;;;;;;4993731;28;20022;-82
2021/04/11 06:12:42;;;;;;;411.55;235.27;;;;;;;;;;4959266;28;20555;-82
2021/04/11 06:15:20;;;;;;;474.70;255.88;;;;;;;;;;5019693;28;20033;-83
2021/04/11 06:17:47;;;;;;;441.17;247.68;;;;;;;;;;4982636;28;20026;-82
2021/04/11 06:20:14;;;;;;;456.60;250.00;;;;;;;;;;5024889;28;20045;-81
2021/04/11 06:22:52;;;;;;;452.25;253.80;;;;;;;;;;5018790;28;20025;-81
2021/04/11 06:25:21;;;;;;;411.15;241.90;;;;;;;;;;5006441;28;20068;-81
2021/04/11 06:28:11;;;;;;;447.52;256.95;;;;;;;;;;5018392;28;20049;-82
2021/04/11 06:31:03;;;;;;;433.85;244.45;;;;;;;;;;5020236;28;20018;-82
2021/04/11 06:33:55;;;;;;;406.13;240.65;;;;;;;;;;4983671;28;20481;-82
2021/04/11 06:36:24;;;;;;;479.75;266.27;;;;;;;;;;5000866;28;20136;-82
2021/04/11 06:39:03;;;;;;;456.70;263.88;;;;;;;;;;5017724;28;20120;-81
2021/04/11 06:41:37;;;;;;;404.02;247.85;;;;;;;;;;5027108;28;20037;-81
2021/04/11 06:44:23;;;;;;;466.70;256.52;;;;;;;;;;5020750;28;20014;-82
2021/04/11 06:46:55;;;;;;;457.00;255.13;;;;;;;;;;5022169;28;20465;-82
2021/04/11 06:49:33;;;;;;;406.75;237.02;;;;;;;;;;4993540;28;20095;-82
2021/04/11 06:52:23;;;;;;;456.08;254.57;;;;;;;;;;5004156;28;20417;-83
2021/04/11 06:54:55;;;;;;;411.52;236.93;;;;;;;;;;4979279;28;20105;-82
2021/04/11 06:57:24;;;;;;;452.13;258.40;;;;;;;;;;5020428;28;20027;-81
2021/04/11 06:59:50;;;;;;;428.95;253.23;;;;;;;;;;5018541;28;20037;-81
2021/04/11 07:02:40;;;;;;;457.27;259.58;;;;;;;;;;4988952;28;20021;-82
2021/04/11 07:05:09;;;;;;;422.15;238.27;;;;;;;;;;5013353;28;20033;-83
2021/04/11 07:07:35;;;;;;;469.52;264.13;;;;;;;;;;5015346;28;20082;-84
2021/04/11 07:10:22;;;;;;;433.13;253.13;;;;;;;;;;5025432;28;20569;-83
2021/04/11 07:12:52;;;;;;;454.25;255.98;;;;;;;;;;5014071;28;20400;-86
2021/04/11 07:15:27;;;;;;;437.02;256.25;;;;;;;;;;5023836;28;20133;-85
2021/04/11 07:17:53;;;;;;;398.27;238.90;;;;;;;;;;5020882;28;20030;-83
2021/04/11 07:20:38;;;;;;;460.38;256.70;;;;;;;;;;4993886;28;20120;-83
2021/04/11 07:23:04;;;;;;;413.83;240.27;;;;;;;;;;5015828;28;20022;-83
2021/04/11 07:25:52;;;;;;;421.35;257.52;;;;;;;;;;5020916;28;20041;-85
2021/04/11 07:28:34;;;;;;;447.15;251.77;;;;;;;;;;5017526;28;20049;-83
2021/04/11 07:31:09;;;;;;;433.20;248.00;;;;;;;;;;4989340;28;20037;-84
2021/04/11 07:33:54;;;;;;;442.20;263.15;;;;;;;;;;5016599;28;20101;-84
2021/04/11 07:36:20;;;;;;;418.80;242.70;;;;;;;;;;5025400;28;20036;-84
2021/04/11 07:38:52;;;;;;;421.02;251.48;;;;;;;;;;5023561;28;20033;-84
2021/04/11 07:41:47;;;;;;;450.38;257.77;;;;;;;;;;5023723;28;20052;-84
2021/04/11 07:44:39;;;;;;;441.45;252.80;;;;;;;;;;5022429;28;20126;-86
2021/04/11 07:47:17;;;;;;;417.77;245.13;;;;;;;;;;5017253;28;20153;-86
2021/04/11 07:50:16;;;;;;;423.08;240.45;;;;;;;;;;5023373;28;20108;-86
2021/04/11 07:53:11;;;;;;;437.45;251.93;;;;;;;;;;5016675;28;20045;-86
2021/04/11 07:56:14;;;;;;;455.45;263.80;;;;;;;;;;5025756;28;20029;-86
2021/04/11 07:59:14;;;;;;;;;;;;;;;;;;;;;
2021/04/11 08:02:32;;;;;;;458.23;258.65;;;;;;;;;;4942851;28;20329;-81
2021/04/11 08:05:06;;;;;;;;;;;;;;;;;;4997104;28;20034;-86
2021/04/11 08:07:53;;;;;;;436.38;249.85;;;;;;;;;;4979435;28;19918;-85
2021/04/11 08:10:25;;;;;;;459.17;272.95;;;;;;;;;;4989489;28;20370;-82
2021/04/11 08:13:14;;;;;;;408.33;242.48;;;;;;;;;;5016234;28;20052;-83
2021/04/11 08:15:46;;;;;;;453.17;260.53;;;;;;;;;;5017493;28;20030;-81
2021/04/11 08:18:30;;;;;;;418.48;249.80;;;;;;;;;;4989290;28;20066;-80
2021/04/11 08:21:18;;;;;;;421.65;254.32;;;;;;;;;;4977415;28;20069;-82
2021/04/11 08:24:06;;;;;;;430.08;252.88;;;;;;;;;;4979314;28;20449;-81
2021/04/11 08:26:47;;;;;;;436.02;265.45;;;;;;;;;;4978355;28;20041;-84
2021/04/11 08:29:33;;;;;;;458.30;275.65;;;;;;;;;;5014043;28;20118;-84
2021/04/11 08:32:08;;;;;;;410.15;236.88;;;;;;;;;;4988799;28;20034;-86
2021/04/11 08:35:11;;;;;;;433.73;265.75;;;;;;;;;;4988261;28;20446;-82
2021/04/11 08:38:00;;;;;;;416.38;249.80;;;;;;;;;;5006099;28;20669;-82
2021/04/11 08:40:33;;;;;;;432.77;258.25;;;;;;;;;;4988975;28;20057;-85
2021/04/11 08:46:06;;;;;;;422.60;254.50;;;;;;;;;;5006138;28;20022;-84
2021/04/11 08:48:59;;;;;;;421.58;258.45;;;;;;;;;;5020281;28;20037;-81
2021/04/11 08:51:38;;;;;;;446.25;265.20;;;;;;;;;;4988407;28;20643;-81
2021/04/11 08:54:26;;;;;;;437.57;253.07;;;;;;;;;;5018073;28;20593;-84
2021/04/11 08:57:00;;;;;;;407.45;255.85;;;;;;;;;;5015407;28;20362;-86
2021/04/11 08:59:48;;;;;;;416.92;247.55;;;;;;;;;;4990401;28;20477;-84
2021/04/11 09:05:45;;;;;;;414.65;248.65;;;;;;;;;;5001289;28;20113;-85
2021/04/11 09:09:07;;;;;;;430.80;261.02;;;;;;;;;;5022399;28;20033;-83
2021/04/11 09:11:46;;;;;;;450.23;268.83;;;;;;;;;;4995187;28;20029;-84
2021/04/11 09:14:44;;;;;;;424.33;253.70;;;;;;;;;;5022735;28;20258;-83
2021/04/11 09:27:43;;;;;;;425.45;255.50;;;;;;;;;;4906530;28;20080;-83
2021/04/11 09:30:38;;;;;;;434.07;261.23;;;;;;;;;;4940973;28;20030;-84
2021/04/11 09:33:56;;;;;;;409.73;251.13;;;;;;;;;;4987646;28;20033;-84
2021/04/11 09:36:27;;;;;;;407.45;246.05;;;;;;;;;;5001697;28;20037;-83
2021/04/11 09:42:16;;;;;;;439.52;261.48;;;;;;;;;;5008303;28;20401;-84
2021/04/11 09:48:09;;;;;;;416.02;251.63;;;;;;;;;;5007488;28;20030;-84
2021/04/11 09:50:53;;;;;;;420.25;253.95;;;;;;;;;;5022915;28;20733;-84
2021/04/11 09:53:48;;;;;;;428.15;264.95;;;;;;;;;;5020432;28;20706;-85
2021/04/11 09:56:33;;;;;;;433.98;262.50;;;;;;;;;;4967188;28;20041;-83
2021/04/11 09:59:23;;;;;;;422.83;252.95;;;;;;;;;;5027299;28;20042;-81
2021/04/11 10:01:56;;;;;;;424.13;251.50;;;;;;;;;;5027328;28;20030;-82
2021/04/11 10:04:40;;;;;;;402.55;248.05;;;;;;;;;;5026607;28;20022;-82
2021/04/11 10:07:28;;;;;;;427.90;259.38;;;;;;;;;;4997868;28;20030;-82
2021/04/11 10:10:05;;;;;;;434.33;265.15;;;;;;;;;;5011150;28;20543;-83
2021/04/11 10:12:55;;;;;;;432.40;264.95;;;;;;;;;;5028138;28;20441;-84
2021/04/11 10:15:28;;;;;;;424.98;268.42;;;;;;;;;;5025492;28;20034;-83
2021/04/11 10:18:00;;;;;;;421.20;251.43;;;;;;;;;;5027834;28;20397;-83
2021/04/11 10:20:34;;;;;;;420.65;257.20;;;;;;;;;;4992466;28;20119;-84
2021/04/11 10:23:19;;;;;;;424.73;258.50;;;;;;;;;;4993446;28;20022;-82
2021/04/11 10:25:47;;;;;;;432.58;259.05;;;;;;;;;;5024586;28;20036;-83
2021/04/11 10:28:17;;;;;;;415.30;257.35;;;;;;;;;;5026977;28;20030;-83
2021/04/11 10:30:56;;;;;;;432.27;262.38;;;;;;;;;;5029874;28;20053;-84
2021/04/11 10:34:00;;;;;;;413.98;263.45;;;;;;;;;;5029093;28;20030;-83
2021/04/11 10:36:49;;;;;;;436.25;273.98;;;;;;;;;;4954016;28;20205;-84
2021/04/11 10:39:41;;;;;;;423.48;274.55;;;;;;;;;;4936040;28;20034;-84
2021/04/11 10:42:21;;;;;;;404.90;274.20;;;;;;;;;;4999704;28;20038;-83
2021/04/11 10:45:00;;;;;;;413.42;276.83;;;;;;;;;;4997167;28;20033;-82
2021/04/11 10:47:44;;;;;;;406.50;276.20;;;;;;;;;;4997835;28;20049;-84
2021/04/11 10:50:31;;;;;;;410.20;279.13;;;;;;;;;;5024881;28;20021;-82
2021/04/11 10:53:15;;;;;;;411.75;271.48;;;;;;;;;;4984747;28;20029;-84
2021/04/11 10:55:41;;;;;;;405.42;267.30;;;;;;;;;;5023382;28;20030;-81
2021/04/11 10:58:26;;;;;;;411.90;274.95;;;;;;;;;;4993825;28;20661;-83
2021/04/11 11:01:16;;;;;;;406.58;265.45;;;;;;;;;;5021693;28;20121;-80
2021/04/11 11:04:01;;;;;;;410.83;263.27;;;;;;;;;;5003278;28;20027;-82
2021/04/11 11:06:33;;;;;;;423.90;272.15;;;;;;;;;;4989310;28;20030;-84
2021/04/11 11:09:04;;;;;;;422.25;264.20;;;;;;;;;;5026127;28;20386;-83
2021/04/11 11:11:38;;;;;;;427.52;272.05;;;;;;;;;;5024874;28;20037;-84
2021/04/11 11:14:32;;;;;;;428.85;274.92;;;;;;;;;;5006675;28;20021;-84
2021/04/11 11:17:17;;;;;;;419.17;273.13;;;;;;;;;;5029139;28;20029;-82
2021/04/11 11:20:06;;;;;;;421.35;273.48;;;;;;;;;;5008599;28;20037;-84
2021/04/11 11:22:41;;;;;;;412.63;277.92;;;;;;;;;;4980805;28;20041;-81
2021/04/11 11:25:19;;;;;;;416.15;283.95;;;;;;;;;;4974274;28;20027;-83
2021/04/11 11:27:51;;;;;;;417.92;282.02;;;;;;;;;;4976789;28;20092;-81
2021/04/11 11:30:23;;;;;;;414.40;288.80;;;;;;;;;;4977280;28;20030;-81
2021/04/11 11:33:03;;;;;;;410.33;284.17;;;;;;;;;;5002673;28;20094;-84
2021/04/11 11:35:32;;;;;;;418.63;287.70;;;;;;;;;;4987638;28;20022;-84
2021/04/11 11:38:09;;;;;;;407.42;280.95;;;;;;;;;;4984878;28;20434;-84
2021/04/11 11:40:38;;;;;;;408.98;280.90;;;;;;;;;;4973955;28;20455;-82
2021/04/11 11:43:22;;;;;;;422.58;286.30;;;;;;;;;;4972799;28;20037;-83
2021/04/11 11:46:06;;;;;;;403.10;272.70;;;;;;;;;;4981306;28;20026;-82
2021/04/11 11:48:55;;;;;;;416.27;277.25;;;;;;;;;;5004818;28;20109;-84
2021/04/11 11:51:33;;;;;;;412.02;276.45;;;;;;;;;;4972755;28;20084;-81
2021/04/11 11:54:14;;;;;;;403.95;270.40;;;;;;;;;;4967696;28;20097;-85
2021/04/11 11:56:52;;;;;;;403.88;267.75;;;;;;;;;;4962743;28;20510;-81
2021/04/11 11:59:25;;;;;;;409.65;267.02;;;;;;;;;;4965674;28;20255;-83
2021/04/11 12:02:12;;;;;;;414.17;277.05;;;;;;;;;;4965403;28;20359;-80
2021/04/11 12:04:50;;;;;;;412.63;270.85;;;;;;;;;;4957609;28;20042;-84
2021/04/11 12:07:22;;;;;;;412.27;269.25;;;;;;;;;;4973741;28;20085;-82
2021/04/11 12:09:51;;;;;;;412.50;276.00;;;;;;;;;;4974047;28;20422;-83
2021/04/11 12:12:27;;;;;;;421.83;276.23;;;;;;;;;;4974086;28;20064;-84
2021/04/11 12:15:01;;;;;;;415.35;272.55;;;;;;;;;;4973674;28;20069;-83
2021/04/11 12:17:27;;;;;;;422.88;281.83;;;;;;;;;;4983370;28;20037;-82
2021/04/11 12:20:06;;;;;;;430.75;286.20;;;;;;;;;;4958616;28;20034;-84
2021/04/11 12:22:32;;;;;;;428.57;287.67;;;;;;;;;;5024064;28;20088;-82
2021/04/11 12:25:00;;;;;;;424.90;285.00;;;;;;;;;;4985828;28;20728;-81
2021/04/11 12:27:29;;;;;;;426.70;284.63;;;;;;;;;;5028014;28;20390;-82
2021/04/11 12:29:58;;;;;;;428.80;290.30;;;;;;;;;;4993872;28;20075;-82
2021/04/11 12:32:31;;;;;;;442.95;296.98;;;;;;;;;;4991562;28;20049;-82
2021/04/11 12:35:10;;;;;;;444.02;293.92;;;;;;;;;;4992118;28;20101;-83
2021/04/11 12:37:48;;;;;;;427.83;289.30;;;;;;;;;;4994269;28;20010;-83
2021/04/11 12:40:20;;;;;;;424.20;289.25;;;;;;;;;;5026492;28;20091;-83
2021/04/11 12:42:49;;;;;;;412.75;290.52;;;;;;;;;;5009619;28;20029;-84
2021/04/11 12:45:24;;;;;;;423.80;301.95;;;;;;;;;;5025467;28;20026;-83
2021/04/11 12:48:09;;;;;;;412.35;303.73;;;;;;;;;;4994766;28;20204;-83
2021/04/11 12:50:39;;;;;;;419.95;306.13;;;;;;;;;;5009065;28;20378;-84
2021/04/11 12:53:11;;;;;;;416.10;305.70;;;;;;;;;;4993565;28;20037;-84
2021/04/11 12:55:37;;;;;;;415.33;306.02;;;;;;;;;;4988810;28;20030;-84
2021/04/11 12:58:10;;;;;;;425.92;316.77;;;;;;;;;;4990822;28;20038;-87
2021/04/11 13:00:53;;;;;;;414.30;307.83;;;;;;;;;;5006548;28;20034;-84
2021/04/11 13:03:38;;;;;;;410.88;304.30;;;;;;;;;;4986985;28;20034;-88
2021/04/11 13:06:07;;;;;;;417.60;303.45;;;;;;;;;;5023670;28;20018;-85
2021/04/11 13:08:39;;;;;;;419.70;307.45;;;;;;;;;;4992546;28;20029;-85
2021/04/11 13:11:17;;;;;;;422.73;306.48;;;;;;;;;;5024297;28;20018;-86
2021/04/11 13:14:04;;;;;;;423.77;307.25;;;;;;;;;;5025867;28;20018;-82
2021/04/11 13:16:40;;;;;;;435.30;308.90;;;;;;;;;;4990828;28;20040;-80
2021/04/11 13:19:25;;;;;;;437.15;302.80;;;;;;;;;;5008211;28;20069;-82
2021/04/11 13:22:03;;;;;;;425.73;298.63;;;;;;;;;;5020735;28;20100;-83
2021/04/11 13:24:35;;;;;;;421.80;294.70;;;;;;;;;;5025719;28;20038;-82
2021/04/11 13:27:09;;;;;;;438.23;301.02;;;;;;;;;;5026130;28;20018;-83
2021/04/11 13:29:50;;;;;;;432.67;299.00;;;;;;;;;;5025098;28;20437;-84
2021/04/11 13:32:16;;;;;;;;;;;;;;;;;;5014840;28;20042;-81
2021/04/11 13:34:44;;;;;;;414.25;280.80;;;;;;;;;;4997854;28;19953;-82
2021/04/11 13:37:14;;;;;;;425.75;295.52;;;;;;;;;;4995959;28;20621;-81
2021/04/11 13:39:49;;;;;;;451.00;307.75;;;;;;;;;;4997670;28;20041;-84
2021/04/11 13:42:27;;;;;;;445.92;308.38;;;;;;;;;;4991156;28;20045;-85
2021/04/11 13:45:19;;;;;;;451.17;310.30;;;;;;;;;;5029933;28;20033;-86
2021/04/11 13:48:09;;;;;;;450.08;309.10;;;;;;;;;;4995149;28;20022;-88
2021/04/11 13:50:42;;;;;;;445.80;309.92;;;;;;;;;;5033041;28;20025;-85
2021/04/11 13:53:22;;;;;;;450.25;315.95;;;;;;;;;;4996710;28;20493;-82
2021/04/11 13:55:56;;;;;;;417.50;311.25;;;;;;;;;;4995419;28;20022;-83
2021/04/11 13:58:47;;;;;;;441.17;335.58;;;;;;;;;;5011642;28;20050;-85
2021/04/11 14:04:21;;;;;;;424.50;347.08;;;;;;;;;;4983351;28;20148;-82
2021/04/11 14:07:31;;;;;;;446.58;364.98;;;;;;;;;;4998815;28;20052;-85
2021/04/11 14:10:01;;;;;;;422.63;353.88;;;;;;;;;;5010927;28;20022;-85
2021/04/11 14:12:31;;;;;;;424.63;356.45;;;;;;;;;;4998597;28;20042;-83
2021/04/11 14:15:09;;;;;;;441.65;373.50;;;;;;;;;;4991835;28;20053;-85
2021/04/11 14:17:40;;;;;;;434.55;377.13;;;;;;;;;;4994940;28;20057;-84
2021/04/11 14:20:12;;;;;;;440.00;389.52;;;;;;;;;;4994612;28;20034;-86
2021/04/11 14:22:46;;;;;;;438.55;390.42;;;;;;;;;;4981431;28;20042;-83
2021/04/11 14:25:15;;;;;;;441.05;392.48;;;;;;;;;;4975865;28;20034;-84
2021/04/11 14:27:47;;;;;;;448.40;399.20;;;;;;;;;;4969527;28;20112;-84
2021/04/11 14:30:31;;;;;;;436.05;388.10;;;;;;;;;;4976879;28;20045;-84
2021/04/11 14:33:19;;;;;;;434.08;387.45;;;;;;;;;;4969874;28;20054;-85
2021/04/11 14:36:00;;;;;;;436.23;388.90;;;;;;;;;;4977225;28;20038;-84
2021/04/11 14:38:28;;;;;;;441.23;393.92;;;;;;;;;;4974162;28;20461;-85
2021/04/11 14:41:04;;;;;;;447.80;400.30;;;;;;;;;;4970850;28;20097;-86
2021/04/11 14:43:56;;;;;;;441.27;394.83;;;;;;;;;;5004554;28;20031;-85
2021/04/11 14:46:27;;;;;;;436.70;388.55;;;;;;;;;;4974848;28;20030;-86
2021/04/11 14:49:03;;;;;;;425.40;379.13;;;;;;;;;;4983737;28;20454;-86
2021/04/11 14:51:53;;;;;;;422.58;373.90;;;;;;;;;;4977371;28;20472;-86
2021/04/11 14:54:37;;;;;;;;;;;;;;;;;;4990451;28;20125;-87
2021/04/11 14:57:22;;;;;;;422.60;358.23;;;;;;;;;;5004523;28;19917;-85
2021/04/11 15:00:01;;;;;;;432.05;365.50;;;;;;;;;;4977465;28;20033;-85
2021/04/11 15:02:50;;;;;;;441.48;366.50;;;;;;;;;;4985882;28;20081;-84
2021/04/11 15:05:21;;;;;;;463.02;378.75;;;;;;;;;;4977797;28;20335;-83
2021/04/11 15:08:01;;;;;;;522.78;415.25;;;;;;;;;;4974624;28;20022;-85
2021/04/11 15:10:35;;;;;;;537.47;420.27;;;;;;;;;;4974553;28;20066;-84
2021/04/11 15:13:04;;;;;;;591.83;458.73;;;;;;;;;;4975977;28;20680;-85
2021/04/11 15:15:49;;;;;;;609.17;475.40;;;;;;;;;;4986733;28;20832;-82